Time;durP1;ratioP1;P1;durP2;ratioP2;P2;SDS_P1;SDS_P2;PMS_P1;PMS_P2;Temp;Humidity;BMP_temperature;BMP_pressure;BME280_temperature;BME280_humidity;BME280_pressure;Samples;Min_cycle;Max_cycle;Signal;HPM_P1;HPM_P2
2023/07/14 00:01:38;;;;;;;;;20.00;18.00;;;;;28.63;44.49;100768.31;146610;609;46012;-70
2023/07/14 00:05:03;;;;;;;;;15.75;14.00;;;;;28.62;43.79;100773.66;146610;629;46016;-71
2023/07/14 00:08:08;;;;;;;;;19.00;14.50;;;;;28.59;43.87;100771.06;146610;600;47012;-73
2023/07/14 00:11:15;;;;;;;;;16.75;16.00;;;;;28.44;44.00;100773.19;146609;592;46011;-71
2023/07/14 00:14:07;;;;;;;;;18.00;15.75;;;;;28.28;44.82;100769.91;146611;672;46020;-70
2023/07/14 00:17:05;;;;;;;;;15.00;15.00;;;;;28.17;45.18;100766.59;146607;589;46915;-71
2023/07/14 00:19:59;;;;;;;;;18.75;15.25;;;;;28.09;45.69;100769.41;146609;667;47020;-72
2023/07/14 00:22:56;;;;;;;;;18.25;16.00;;;;;28.01;45.72;100760.72;146609;605;46016;-71
2023/07/14 00:25:53;;;;;;;;;15.00;14.50;;;;;27.97;45.02;100760.78;146610;574;47020;-68
2023/07/14 00:28:49;;;;;;;;;15.25;13.50;;;;;27.91;45.29;100751.12;146606;600;46017;-67
2023/07/14 00:31:49;;;;;;;;;16.50;12.75;;;;;27.85;44.50;100753.91;146610;569;47019;-67
2023/07/14 00:34:41;;;;;;;;;16.25;13.75;;;;;27.81;45.43;100760.22;146608;620;46027;-75
2023/07/14 00:37:36;;;;;;;;;16.25;16.25;;;;;27.78;45.32;100755.81;146609;582;47008;-70
2023/07/14 00:40:43;;;;;;;;;14.00;12.00;;;;;27.72;45.28;100753.22;146608;593;46016;-70
2023/07/14 00:43:44;;;;;;;;;14.25;14.00;;;;;27.64;45.59;100749.84;146603;596;47012;-71
2023/07/14 00:46:42;;;;;;;;;13.75;11.50;;;;;27.55;45.58;100750.91;146608;591;46016;-69
2023/07/14 00:49:49;;;;;;;;;15.25;14.25;;;;;27.54;44.92;100751.81;146610;594;47020;-69
2023/07/14 00:52:48;;;;;;;;;19.50;17.50;;;;;27.51;44.72;100751.87;146598;642;47915;-69
2023/07/14 00:56:29;;;;;;;;;14.00;12.50;;;;;25.76;44.41;100467.47;146611;575;46020;-70
2023/07/14 00:59:37;;;;;;;;;16.25;12.75;;;;;27.35;44.90;100763.66;146608;593;46016;-70
2023/07/14 01:02:37;;;;;;;;;14.00;12.00;;;;;27.27;45.88;100760.28;146613;604;46020;-69
2023/07/14 01:05:31;;;;;;;;;15.75;12.25;;;;;27.19;46.19;100763.06;146610;602;46012;-69
2023/07/14 01:08:46;;;;;;;;;15.75;15.00;;;;;26.12;45.46;100602.44;146607;576;46020;-70
2023/07/14 01:11:51;;;;;;;;;15.50;13.25;;;;;26.96;45.86;100766.06;146609;613;46016;-71
2023/07/14 01:15:01;;;;;;;;;14.75;13.25;;;;;26.87;45.96;100761.75;146603;620;47020;-71
2023/07/14 01:17:59;;;;;;;;;15.00;14.25;;;;;26.76;46.54;100755.75;146607;616;47010;-71
2023/07/14 01:20:58;;;;;;;;;16.75;15.50;;;;;26.71;46.40;100754.91;146611;683;47008;-72
2023/07/14 01:24:20;;;;;;;;;15.25;14.25;;;;;26.38;45.66;100701.28;146608;569;46915;-69
2023/07/14 01:27:13;;;;;;;;;14.00;14.00;;;;;26.65;46.16;100760.31;146610;572;47012;-71
2023/07/14 01:30:15;;;;;;;;;16.25;14.50;;;;;26.65;45.58;100753.22;146607;569;47012;-70
2023/07/14 01:33:21;;;;;;;;;17.00;15.25;;;;;26.70;45.60;100746.06;146612;601;46020;-72
2023/07/14 01:36:13;;;;;;;;;15.75;13.50;;;;;26.72;46.21;100743.38;146607;577;46016;-74
2023/07/14 01:39:15;;;;;;;;;13.50;12.00;;;;;26.74;45.53;100743.38;146610;680;46020;-69
2023/07/14 01:42:08;;;;;;;;;15.75;15.00;;;;;26.76;45.69;100744.19;146608;571;46017;-70
2023/07/14 01:45:17;;;;;;;;;15.00;12.75;;;;;26.76;45.04;100734.47;146606;718;46020;-72
2023/07/14 01:48:28;;;;;;;;;14.00;11.75;;;;;26.77;45.26;100744.19;146606;570;47010;-71
2023/07/14 01:51:35;;;;;;;;;12.75;12.00;;;;;26.72;44.90;100736.25;146611;668;47008;-72
2023/07/14 01:54:54;;;;;;;;;13.75;13.25;;;;;26.72;44.74;100740.72;146607;736;47915;-74
2023/07/14 01:58:11;;;;;;;;;15.75;15.00;;;;;25.77;44.93;100567.47;146610;608;47008;-72
2023/07/14 02:01:33;;;;;;;;;17.75;11.50;;;;;26.64;45.04;100730.19;146608;675;47010;-73
2023/07/14 02:04:41;;;;;;;;;15.50;14.00;;;;;26.72;45.15;100733.59;146608;585;47012;-74
2023/07/14 02:08:08;;;;;;;;;15.50;14.25;;;;;26.64;44.41;100732.84;146607;579;47010;-74
2023/07/14 02:11:03;;;;;;;;;15.50;13.50;;;;;26.61;45.14;100735.56;146612;584;46021;-72
2023/07/14 02:14:21;;;;;;;;;16.25;14.50;;;;;25.66;44.79;100569.37;146607;682;47010;-73
2023/07/14 02:17:42;;;;;;;;;13.50;11.75;;;;;26.55;45.19;100733.00;146606;595;47010;-73
2023/07/14 02:21:05;;;;;;;;;14.75;13.75;;;;;24.79;45.04;100451.88;146609;713;46012;-74
2023/07/14 02:23:59;;;;;;;;;12.00;11.00;;;;;26.35;45.93;100735.87;146611;675;47020;-72
2023/07/14 02:27:25;;;;;;;;;;;;;;;;;;;;;
2023/07/14 02:30:29;;;;;;;;;14.00;14.00;;;;;26.24;45.76;100724.53;146611;565;47020;-74
2023/07/14 02:33:39;;;;;;;;;12.25;12.25;;;;;26.22;45.98;100723.66;146607;642;47011;-70
2023/07/14 02:37:23;;;;;;;;;14.50;13.25;;;;;25.24;45.24;100554.88;146609;614;47020;-71
2023/07/14 02:40:20;;;;;;;;;16.75;13.75;;;;;26.19;45.22;100724.56;146606;649;48010;-69
2023/07/14 02:43:26;;;;;;;;;15.00;14.00;;;;;26.18;44.69;100722.81;146612;574;46020;-69
2023/07/14 02:47:00;;;;;;;;;14.25;12.50;;;;;26.21;44.96;100728.09;146610;644;46016;-69
2023/07/14 02:50:01;;;;;;;;;14.25;13.00;;;;;26.32;44.79;100725.28;146606;564;47010;-70
2023/07/14 02:53:07;;;;;;;;;17.25;16.25;;;;;26.38;45.46;100725.19;146606;577;47010;-70
2023/07/14 02:56:03;;;;;;;;;16.00;13.25;;;;;26.47;45.48;100729.50;146607;569;48008;-69
2023/07/14 02:59:06;;;;;;;;;16.25;13.75;;;;;26.52;45.77;100721.53;146606;563;47010;-70
2023/07/14 03:02:06;;;;;;;;;19.75;17.75;;;;;26.57;46.30;100715.22;146607;575;46021;-69
2023/07/14 03:05:03;;;;;;;;;16.75;14.00;;;;;26.63;46.28;100722.22;146610;592;46030;-70
2023/07/14 03:08:00;;;;;;;;;16.25;15.75;;;;;26.70;46.28;100730.09;146613;563;46020;-71
2023/07/14 03:11:00;;;;;;;;;19.75;16.75;;;;;26.80;45.98;100737.94;146606;626;46016;-70
2023/07/14 03:14:04;;;;;;;;;20.25;18.00;;;;;26.87;46.37;100736.94;146612;580;46022;-69
2023/07/14 03:16:56;;;;;;;;;18.50;16.25;;;;;26.87;47.13;100736.94;146605;565;46914;-72
2023/07/14 03:19:50;;;;;;;;;18.50;16.25;;;;;26.91;47.42;100746.63;146606;569;47008;-70
2023/07/14 03:22:46;;;;;;;;;18.75;17.50;;;;;26.94;47.20;100742.13;146604;569;47010;-69
2023/07/14 03:25:51;;;;;;;;;18.75;17.50;;;;;26.99;47.48;100738.53;146612;618;46021;-69
2023/07/14 03:28:43;;;;;;;;;15.75;14.25;;;;;27.05;47.74;100743.75;146606;589;48010;-69
2023/07/14 03:31:35;;;;;;;;;19.50;17.75;;;;;27.03;47.27;100748.22;146611;619;46021;-70
2023/07/14 03:34:29;;;;;;;;;18.25;17.25;;;;;26.94;47.18;100738.59;146609;563;46016;-73
2023/07/14 03:37:28;;;;;;;;;18.75;16.75;;;;;26.87;47.03;100742.25;146612;574;46025;-73
2023/07/14 03:40:28;;;;;;;;;15.50;15.50;;;;;26.82;47.43;100736.13;146608;576;46017;-73
2023/07/14 03:43:28;;;;;;;;;15.75;14.75;;;;;26.72;47.08;100736.25;146611;570;47008;-71
2023/07/14 03:46:26;;;;;;;;;18.50;15.75;;;;;26.65;46.69;100737.25;146607;583;46017;-70
2023/07/14 03:49:24;;;;;;;;;17.25;16.25;;;;;26.61;46.14;100748.84;146604;639;47008;-77
2023/07/14 03:52:20;;;;;;;;;14.50;14.00;;;;;26.59;46.67;100755.09;146608;598;46012;-78
2023/07/14 03:55:26;;;;;;;;;12.00;11.50;;;;;26.58;46.48;100745.37;146611;625;46008;-77
2023/07/14 03:58:19;;;;;;;;;14.50;14.50;;;;;26.61;46.29;100764.81;146606;577;47016;-70
2023/07/14 04:01:17;;;;;;;;;13.00;11.25;;;;;26.61;46.52;100748.00;146613;648;46009;-69
2023/07/14 04:04:18;;;;;;;;;14.50;13.00;;;;;26.61;46.81;100746.19;146608;716;46012;-69
2023/07/14 04:07:22;;;;;;;;;14.25;12.50;;;;;26.65;45.88;100744.38;146613;588;46008;-74
2023/07/14 04:10:18;;;;;;;;;12.25;11.00;;;;;26.66;46.58;100747.00;146607;571;47010;-70
2023/07/14 04:13:13;;;;;;;;;14.00;12.25;;;;;26.70;47.04;100747.84;146611;598;46020;-72
2023/07/14 04:16:07;;;;;;;;;14.50;13.50;;;;;26.82;46.78;100749.41;146609;576;46010;-72
2023/07/14 04:19:04;;;;;;;;;14.00;11.00;;;;;26.97;46.77;100751.84;146606;695;47008;-72
2023/07/14 04:22:03;;;;;;;;;14.50;12.25;;;;;27.12;46.38;100759.59;146606;570;46913;-73
2023/07/14 04:24:58;;;;;;;;;11.75;10.25;;;;;27.21;46.41;100752.41;146611;635;47008;-73
2023/07/14 04:27:52;;;;;;;;;14.00;12.75;;;;;27.36;47.08;100752.13;146608;576;46016;-72
2023/07/14 04:30:52;;;;;;;;;15.00;13.50;;;;;27.51;46.54;100758.94;146634;681;45021;-72
2023/07/14 04:33:55;;;;;;;;;14.75;12.75;;;;;27.64;45.77;100772.03;146628;606;47012;-73
2023/07/14 04:37:07;;;;;;;;;18.50;15.25;;;;;26.91;46.71;100617.13;146631;619;45020;-73
2023/07/14 04:40:08;;;;;;;;;13.75;10.25;;;;;28.08;47.72;100767.66;146630;566;46010;-73
2023/07/14 04:43:12;;;;;;;;;17.50;16.00;;;;;28.36;46.42;100787.56;146630;654;45020;-73
2023/07/14 04:46:20;;;;;;;;;16.50;14.25;;;;;27.60;45.00;100622.94;146630;590;46010;-74
2023/07/14 04:49:17;;;;;;;;;16.25;14.25;;;;;28.67;45.85;100780.66;146628;574;45026;-76
2023/07/14 04:52:12;;;;;;;;;14.25;13.00;;;;;28.85;46.22;100790.03;146629;580;46913;-75
2023/07/14 04:55:17;;;;;;;;;18.00;16.75;;;;;29.08;46.96;100777.97;146633;578;45020;-73
2023/07/14 04:58:21;;;;;;;;;19.25;16.25;;;;;29.31;46.76;100772.91;146628;580;45885;-74
2023/07/14 05:01:13;;;;;;;;;20.75;16.00;;;;;29.52;45.70;100768.81;146632;581;45027;-74
2023/07/14 05:04:11;;;;;;;;;20.75;19.00;;;;;29.75;44.45;100773.59;146630;569;46913;-71
2023/07/14 05:07:19;;;;;;;;;;;;;;;;;;;;;
2023/07/14 05:10:18;;;;;;;;;20.00;19.50;;;;;30.15;45.13;100772.44;146630;666;45016;-72
2023/07/14 05:13:12;;;;;;;;;18.25;17.00;;;;;30.32;44.26;100770.19;146635;572;45020;-71
2023/07/14 05:16:11;;;;;;;;;18.75;18.25;;;;;30.51;45.04;100778.53;146631;581;46017;-73
2023/07/14 05:19:09;;;;;;;;;18.25;16.00;;;;;30.69;43.10;100770.88;146632;660;45034;-73
2023/07/14 05:22:05;;;;;;;;;19.50;19.25;;;;;30.85;41.92;100771.31;146631;685;45913;-73
2023/07/14 05:25:01;;;;;;;;;21.25;19.00;;;;;31.01;42.29;100767.19;146631;571;45024;-73
2023/07/14 05:27:53;;;;;;;;;20.25;19.75;;;;;31.16;41.76;100760.47;146626;693;46012;-74
2023/07/14 05:30:47;;;;;;;;;19.00;18.25;;;;;31.34;42.10;100773.28;146631;565;45026;-75
2023/07/14 05:33:43;;;;;;;;;20.50;18.00;;;;;31.46;41.25;100761.22;146632;595;45016;-78
2023/07/14 05:36:40;;;;;;;;;18.75;18.00;;;;;31.56;41.19;100759.09;146623;577;46919;-74
2023/07/14 05:39:37;;;;;;;;;17.25;16.75;;;;;31.64;40.88;100763.28;146629;624;46016;-70
2023/07/14 05:42:37;;;;;;;;;21.25;19.50;;;;;31.77;39.66;100773.56;146633;629;46008;-72
2023/07/14 05:45:30;;;;;;;;;22.00;19.50;;;;;31.88;39.10;100771.38;146629;608;45914;-71
2023/07/14 05:48:27;;;;;;;;;21.00;18.50;;;;;31.98;39.74;100767.44;146627;613;45020;-74
2023/07/14 05:51:31;;;;;;;;;20.25;18.75;;;;;32.13;39.04;100772.25;146630;565;46017;-71
2023/07/14 05:54:32;;;;;;;;;21.25;17.75;;;;;32.27;38.64;100774.41;146636;637;44043;-70
2023/07/14 05:57:28;;;;;;;;;21.25;19.50;;;;;32.41;39.86;100780.13;146629;575;45913;-71
2023/07/14 06:00:36;;;;;;;;;24.25;20.75;;;;;32.60;39.40;100774.94;146630;614;45021;-73
2023/07/14 06:03:37;;;;;;;;;19.25;18.00;;;;;32.75;37.91;100778.84;146632;571;45016;-74
2023/07/14 06:06:31;;;;;;;;;21.50;20.50;;;;;32.88;38.00;100772.03;146629;613;46021;-73
2023/07/14 06:09:30;;;;;;;;;20.25;17.25;;;;;33.02;39.77;100774.19;146627;570;46913;-72
2023/07/14 06:12:29;;;;;;;;;23.25;20.50;;;;;33.17;39.46;100767.28;146635;574;45008;-70
2023/07/14 06:15:21;;;;;;;;;20.75;19.25;;;;;33.31;40.50;100772.97;146628;612;45926;-73
2023/07/14 06:18:19;;;;;;;;;28.25;26.50;;;;;33.47;39.11;100762.41;146627;611;45008;-73
2023/07/14 06:21:26;;;;;;;;;27.75;24.50;;;;;33.57;38.40;100765.63;146628;573;45913;-74
2023/07/14 06:24:20;;;;;;;;;16.25;13.25;;;;;33.62;38.52;100757.34;146632;569;45020;-74
2023/07/14 06:27:13;;;;;;;;;23.50;21.00;;;;;33.71;38.49;100755.13;146630;564;45913;-75
2023/07/14 06:30:22;;;;;;;;;21.75;21.50;;;;;32.93;38.39;100610.69;146615;594;47008;-74
2023/07/14 06:33:20;;;;;;;;;25.25;22.25;;;;;33.87;38.08;100751.75;146607;599;46016;-73
2023/07/14 06:36:15;;;;;;;;;29.75;24.25;;;;;33.96;39.53;100757.59;146606;619;47008;-75
2023/07/14 06:39:20;;;;;;;;;;;;;;;;;;;;;
2023/07/14 06:42:13;;;;;;;;;27.25;23.00;;;;;34.17;39.48;100761.12;146613;583;46008;-73
2023/07/14 06:45:11;;;;;;;;;24.00;23.25;;;;;34.25;39.03;100755.41;146612;576;46018;-73
2023/07/14 06:48:10;;;;;;;;;24.50;22.75;;;;;34.34;39.41;100754.97;146607;596;46020;-74
2023/07/14 06:51:07;;;;;;;;;21.75;21.25;;;;;34.42;39.74;100755.44;146606;567;46908;-73
2023/07/14 06:54:01;;;;;;;;;26.75;23.25;;;;;34.52;39.76;100755.91;146608;633;47012;-73
2023/07/14 06:57:02;;;;;;;;;23.50;22.00;;;;;34.63;39.65;100756.28;146608;746;46913;-73
2023/07/14 07:00:00;;;;;;;;;25.75;23.00;;;;;34.74;38.35;100755.78;146609;642;47021;-73
2023/07/14 07:02:59;;;;;;;;;26.25;22.50;;;;;34.86;37.41;100755.19;146609;642;46913;-73
2023/07/14 07:05:55;;;;;;;;;29.25;24.75;;;;;34.97;36.62;100753.75;146611;618;46021;-72
2023/07/14 07:08:49;;;;;;;;;21.50;20.75;;;;;35.04;37.63;100760.62;146608;676;47010;-72
2023/07/14 07:11:51;;;;;;;;;23.75;21.00;;;;;35.07;38.06;100761.31;146614;687;46020;-73
2023/07/14 07:14:53;;;;;;;;;26.75;23.00;;;;;35.18;38.23;100766.19;146606;610;46034;-72
2023/07/14 07:17:47;;;;;;;;;27.25;25.00;;;;;35.30;37.99;100760.19;146605;675;46020;-73
2023/07/14 07:20:53;;;;;;;;;28.00;25.25;;;;;35.40;37.68;100763.28;146609;582;47012;-73
2023/07/14 07:23:58;;;;;;;;;22.25;22.25;;;;;35.51;40.27;100757.31;146612;651;47008;-73
2023/07/14 07:26:57;;;;;;;;;16.25;13.75;;;;;35.60;38.28;100763.13;146609;618;46913;-73
2023/07/14 07:29:48;;;;;;;;;22.25;22.25;;;;;35.69;37.04;100758.19;146701;571;46014;-72
2023/07/14 07:32:51;;;;;;;;;20.75;17.50;;;;;35.73;37.79;100766.03;146613;594;46016;-73
2023/07/14 07:35:57;;;;;;;;;26.75;23.75;;;;;35.79;36.98;100763.00;146610;595;47010;-74
2023/07/14 07:39:00;;;;;;;;;22.50;21.00;;;;;35.89;36.15;100765.22;146610;576;46014;-73
2023/07/14 07:41:55;;;;;;;;;21.25;20.50;;;;;35.97;35.84;100753.06;146611;587;47014;-72
2023/07/14 07:44:47;;;;;;;;;23.50;22.50;;;;;36.05;36.40;100761.66;146609;564;46016;-72
2023/07/14 08:31:01;;;;;;;;;21.00;19.50;;;;;34.95;39.81;100753.81;146706;570;46012;-83
2023/07/14 08:33:56;;;;;;;;;17.75;17.25;;;;;34.94;39.85;100763.72;146616;595;46017;-71
2023/07/14 08:36:54;;;;;;;;;21.25;18.00;;;;;35.04;40.71;100763.31;146616;569;46032;-72
2023/07/14 08:39:55;;;;;;;;;17.00;17.00;;;;;35.19;39.21;100762.53;146619;589;46012;-72
2023/07/14 08:43:37;;;;;;;;;20.00;17.50;;;;;34.12;38.06;100537.16;146613;603;47010;-70
2023/07/14 08:47:03;;;;;;;;;22.00;20.50;;;;;34.42;37.58;100550.88;146610;572;47012;-72
2023/07/14 08:50:21;;;;;;;;;16.75;15.75;;;;;35.73;37.85;100755.25;146614;563;47010;-72
2023/07/14 08:53:32;;;;;;;;;21.25;19.50;;;;;35.89;36.65;100758.03;146610;573;47016;-71
2023/07/14 08:56:28;;;;;;;;;19.00;17.75;;;;;36.00;36.00;100754.72;146616;593;46029;-73
2023/07/14 08:59:48;;;;;;;;;17.50;15.50;;;;;36.12;35.05;100750.53;146608;593;46012;-70
2023/07/14 09:03:02;;;;;;;;;18.00;18.00;;;;;36.17;35.71;100746.63;146616;599;46021;-71
2023/07/14 09:06:01;;;;;;;;;20.25;17.50;;;;;36.26;34.55;100754.22;146609;594;47012;-72
2023/07/14 09:08:55;;;;;;;;;20.25;20.25;;;;;36.37;34.71;100747.34;146616;594;46010;-71
2023/07/14 09:12:34;;;;;;;;;18.25;17.75;;;;;36.47;34.26;100737.75;146609;610;47016;-67
2023/07/14 09:15:42;;;;;;;;;16.50;15.25;;;;;35.09;34.06;100497.19;146617;588;46010;-70
2023/07/14 09:19:16;;;;;;;;;18.50;17.50;;;;;36.52;32.51;100730.28;146610;578;46017;-70
2023/07/14 09:22:38;;;;;;;;;21.25;18.50;;;;;36.60;34.38;100729.84;146617;635;46020;-71
2023/07/14 09:26:17;;;;;;;;;16.50;15.25;;;;;35.98;31.99;100597.41;146608;594;46017;-72
2023/07/14 09:29:40;;;;;;;;;21.25;18.50;;;;;36.73;32.36;100718.25;146614;586;46042;-71
2023/07/14 09:32:51;;;;;;;;;20.25;18.75;;;;;36.75;32.32;100720.84;146603;587;46013;-80
2023/07/14 09:35:46;;;;;;;;;23.50;20.50;;;;;36.80;32.60;100718.78;146605;679;47010;-70
2023/07/14 09:39:11;;;;;;;;;23.25;20.50;;;;;36.91;32.79;100718.13;146597;582;48012;-77
2023/07/14 09:42:07;;;;;;;;;22.75;19.75;;;;;37.00;32.55;100717.63;146608;599;46010;-73
2023/07/14 09:45:07;;;;;;;;;16.75;14.75;;;;;36.99;31.87;100722.16;146600;624;47916;-72
2023/07/14 09:48:14;;;;;;;;;20.50;18.50;;;;;36.91;31.37;100721.69;146606;609;47010;-72
2023/07/14 09:51:27;;;;;;;;;20.50;18.50;;;;;36.83;31.56;100715.88;146603;577;46041;-72
2023/07/14 09:54:21;;;;;;;;;20.00;18.75;;;;;36.80;31.68;100720.59;146607;572;47010;-72
2023/07/14 09:57:17;;;;;;;;;18.50;17.50;;;;;36.81;31.46;100722.34;146604;566;46016;-72
2023/07/14 10:00:25;;;;;;;;;18.50;17.50;;;;;36.78;31.60;100717.09;146608;574;46010;-72
2023/07/14 10:03:28;;;;;;;;;23.00;21.50;;;;;36.79;32.47;100713.44;146603;569;46916;-73
2023/07/14 10:06:26;;;;;;;;;17.50;16.00;;;;;36.89;32.78;100712.81;146605;569;48010;-72
2023/07/14 10:09:22;;;;;;;;;16.75;16.75;;;;;36.94;32.38;100713.41;146604;574;46017;-73
2023/07/14 10:12:20;;;;;;;;;18.25;16.50;;;;;36.96;31.87;100713.31;146608;632;46010;-72
2023/07/14 10:15:43;;;;;;;;;17.75;16.25;;;;;36.95;32.59;100717.88;146605;609;46035;-72
2023/07/14 10:18:58;;;;;;;;;19.50;18.50;;;;;36.93;32.42;100711.66;146606;718;47020;-73
2023/07/14 10:22:16;;;;;;;;;17.25;15.25;;;;;36.89;33.14;100704.72;146603;587;47015;-72
2023/07/14 10:25:27;;;;;;;;;19.00;18.00;;;;;36.89;33.50;100706.56;146606;569;46014;-71
2023/07/14 10:28:33;;;;;;;;;19.25;19.25;;;;;36.97;32.85;100704.25;146603;564;47014;-70
2023/07/14 10:31:51;;;;;;;;;16.50;15.25;;;;;37.05;33.26;100698.44;146635;578;46010;-71
2023/07/14 10:35:03;;;;;;;;;20.00;19.25;;;;;37.10;32.53;100694.47;146630;563;46012;-70
2023/07/14 10:38:40;;;;;;;;;17.00;16.00;;;;;36.27;32.96;100561.56;146629;593;47010;-71
2023/07/14 10:41:53;;;;;;;;;19.00;17.50;;;;;37.02;32.93;100693.22;146633;591;45012;-70
2023/07/14 10:44:50;;;;;;;;;21.25;15.75;;;;;37.03;33.13;100695.81;146620;590;47010;-75
2023/07/14 10:48:23;;;;;;;;;16.75;15.00;;;;;36.34;33.82;100553.09;146632;645;45028;-76
2023/07/14 10:51:56;;;;;;;;;26.25;23.25;;;;;37.32;33.53;100694.03;146631;619;45020;-75
2023/07/14 10:55:25;;;;;;;;;19.25;18.00;;;;;37.44;33.37;100689.72;146632;634;45014;-72
2023/07/14 10:58:50;;;;;;;;;20.25;19.00;;;;;37.49;32.49;100700.31;146634;586;46014;-76
2023/07/14 11:02:06;;;;;;;;;16.75;16.50;;;;;37.42;32.85;100687.13;146631;631;45016;-72
2023/07/14 11:05:20;;;;;;;;;19.25;17.50;;;;;36.45;33.02;100539.81;146632;573;46020;-75
2023/07/14 11:08:20;;;;;;;;;23.25;19.50;;;;;37.22;33.33;100677.50;146633;583;45916;-71
2023/07/14 11:11:51;;;;;;;;;18.25;17.25;;;;;37.21;33.64;100689.28;146634;577;46010;-71
2023/07/14 11:15:05;;;;;;;;;15.00;13.50;;;;;37.22;33.05;100677.50;146630;633;45916;-72
2023/07/14 11:18:38;;;;;;;;;18.75;18.50;;;;;37.30;33.42;100679.75;146634;565;45029;-71
2023/07/14 11:22:00;;;;;;;;;22.75;19.00;;;;;36.70;33.69;100572.56;146631;607;45016;-71
2023/07/14 11:25:20;;;;;;;;;21.00;18.25;;;;;37.34;33.84;100681.31;146633;589;45010;-71
2023/07/14 11:28:45;;;;;;;;;17.00;16.25;;;;;37.36;33.46;100670.41;146626;565;47014;-71
2023/07/14 11:31:48;;;;;;;;;16.75;14.75;;;;;37.36;32.70;100671.28;146630;579;46014;-71
2023/07/14 11:34:48;;;;;;;;;21.75;17.25;;;;;37.39;32.18;100673.78;146627;670;45016;-72
2023/07/14 11:38:21;;;;;;;;;14.50;14.50;;;;;37.40;31.93;100658.44;146632;605;47020;-72
2023/07/14 11:41:17;;;;;;;;;17.00;15.00;;;;;37.39;31.15;100668.38;146631;565;45914;-71
2023/07/14 11:44:17;;;;;;;;;21.25;19.50;;;;;37.38;31.26;100655.78;146633;584;45020;-71
2023/07/14 11:47:28;;;;;;;;;23.00;21.25;;;;;37.41;31.19;100649.34;146630;602;46024;-70
2023/07/14 11:50:49;;;;;;;;;23.50;19.25;;;;;36.61;31.60;100510.12;146636;659;46010;-71
2023/07/14 11:53:49;;;;;;;;;20.00;19.50;;;;;37.39;31.44;100654.00;146629;578;46014;-71
2023/07/14 11:57:03;;;;;;;;;17.00;16.50;;;;;37.47;32.50;100648.13;146631;589;45022;-71
2023/07/14 12:00:06;;;;;;;;;19.00;16.00;;;;;37.56;31.93;100640.28;146630;564;46016;-71
2023/07/14 12:03:09;;;;;;;;;23.50;19.25;;;;;37.59;31.98;100636.53;146635;582;45029;-70
2023/07/14 12:06:30;;;;;;;;;23.25;20.25;;;;;37.64;31.80;100639.84;146631;591;46016;-71
2023/07/14 12:09:23;;;;;;;;;20.75;18.50;;;;;37.71;32.37;100638.47;146635;588;45021;-71
2023/07/14 12:12:23;;;;;;;;;17.75;17.50;;;;;37.85;32.59;100638.47;146631;609;45914;-73
2023/07/14 12:15:52;;;;;;;;;19.50;18.50;;;;;37.90;31.97;100630.03;146633;602;46020;-73
2023/07/14 12:19:49;;;;;;;;;17.50;15.25;;;;;36.62;31.68;100406.50;146632;569;46914;-72
2023/07/14 12:23:08;;;;;;;;;24.75;23.25;;;;;37.89;31.70;100625.59;146632;575;46010;-71
2023/07/14 12:26:36;;;;;;;;;26.50;25.50;;;;;37.96;31.99;100618.84;146630;643;45035;-69
2023/07/14 12:29:32;;;;;;;;;21.75;21.50;;;;;37.92;31.50;100632.66;146623;589;46021;-71
2023/07/14 12:32:32;;;;;;;;;26.00;24.00;;;;;37.86;31.98;100614.97;146605;593;46017;-72
2023/07/14 12:35:33;;;;;;;;;25.50;24.50;;;;;37.85;31.78;100618.62;146610;589;46020;-71
2023/07/14 12:38:34;;;;;;;;;20.50;17.25;;;;;37.82;31.62;100632.34;146605;595;46016;-73
2023/07/14 12:41:45;;;;;;;;;27.75;21.75;;;;;37.83;31.55;100609.75;146610;578;47010;-73
2023/07/14 12:44:40;;;;;;;;;26.00;21.00;;;;;37.83;31.44;100610.63;146605;628;47012;-74
2023/07/14 12:47:49;;;;;;;;;17.50;15.25;;;;;37.89;31.55;100601.25;146605;596;47010;-73
2023/07/14 12:50:55;;;;;;;;;19.75;19.50;;;;;37.97;31.25;100598.06;146606;586;46016;-71
2023/07/14 12:54:13;;;;;;;;;19.50;18.75;;;;;38.05;31.17;100596.59;146605;648;47010;-71
2023/07/14 12:57:09;;;;;;;;;20.25;18.50;;;;;38.20;31.86;100599.25;146599;573;48012;-72
2023/07/14 13:00:52;;;;;;;;;22.75;19.50;;;;;37.33;32.19;100413.72;146608;635;46020;-71
2023/07/14 13:03:57;;;;;;;;;22.00;18.25;;;;;38.56;31.16;100595.94;146605;593;46016;-71
2023/07/14 13:06:54;;;;;;;;;17.75;16.50;;;;;38.62;30.96;100589.25;146613;578;46020;-72
2023/07/14 13:10:03;;;;;;;;;17.75;16.00;;;;;38.61;30.48;100587.50;146601;593;46016;-71
2023/07/14 13:13:10;;;;;;;;;;;;;;;;;;;;;
2023/07/14 13:16:16;;;;;;;;;17.50;16.50;;;;;38.56;31.43;100585.97;146600;595;47012;-71
2023/07/14 13:19:36;;;;;;;;;18.00;15.25;;;;;38.61;31.58;100582.09;146608;565;46010;-73
2023/07/14 13:22:41;;;;;;;;;16.50;14.50;;;;;38.71;31.41;100581.34;146603;678;47013;-72
2023/07/14 13:25:55;;;;;;;;;18.75;16.00;;;;;38.84;31.50;100586.81;146609;630;46020;-72
2023/07/14 13:29:19;;;;;;;;;19.25;17.50;;;;;38.92;29.78;100584.44;146604;595;46013;-74
2023/07/14 13:32:41;;;;;;;;;;;;;;;;;;;;;
2023/07/14 13:35:41;;;;;;;;;17.75;16.25;;;;;38.89;31.37;100567.53;146603;700;46016;-71
2023/07/14 13:38:42;;;;;;;;;21.75;19.25;;;;;38.89;31.66;100570.25;146607;618;46021;-73
2023/07/14 13:41:35;;;;;;;;;18.25;17.50;;;;;38.88;31.12;100572.09;146605;569;46016;-73
2023/07/14 13:45:00;;;;;;;;;19.50;17.50;;;;;38.87;31.50;100559.50;146607;608;47010;-72
2023/07/14 13:47:59;;;;;;;;;18.25;16.50;;;;;38.83;31.75;100560.66;146606;672;46016;-73
2023/07/14 13:50:51;;;;;;;;;18.50;16.50;;;;;38.83;30.95;100557.94;146607;665;47010;-72
2023/07/14 13:53:50;;;;;;;;;19.50;18.25;;;;;38.83;32.21;100563.38;146601;571;47012;-72
2023/07/14 13:56:49;;;;;;;;;17.00;15.00;;;;;38.84;31.94;100554.28;146606;590;47010;-72
2023/07/14 13:59:52;;;;;;;;;16.25;14.75;;;;;38.80;29.54;100550.03;146603;587;46034;-72
2023/07/14 14:02:55;;;;;;;;;17.00;16.25;;;;;38.77;31.66;100558.38;146605;573;46020;-72
2023/07/14 14:05:57;;;;;;;;;18.00;17.00;;;;;38.71;30.69;100559.66;146606;581;46017;-74
2023/07/14 14:08:52;;;;;;;;;15.50;14.25;;;;;38.66;31.51;100553.69;146605;728;47020;-72
2023/07/14 14:11:50;;;;;;;;;17.00;16.75;;;;;38.62;32.09;100556.72;146604;568;47014;-73
2023/07/14 14:14:55;;;;;;;;;19.75;16.75;;;;;38.62;33.09;100551.31;146609;564;46021;-73
2023/07/14 14:18:00;;;;;;;;;18.50;18.00;;;;;38.62;31.65;100549.47;146601;565;47012;-72
2023/07/14 14:20:58;;;;;;;;;17.25;15.50;;;;;38.52;32.69;100541.09;146607;577;47020;-72
2023/07/14 14:23:55;;;;;;;;;16.25;15.75;;;;;38.45;33.60;100550.62;146599;693;49012;-72
2023/07/14 14:26:53;;;;;;;;;17.50;17.00;;;;;38.44;33.40;100539.88;146609;570;46020;-71
2023/07/14 14:29:47;;;;;;;;;18.50;18.00;;;;;38.42;33.46;100542.72;146601;611;47014;-71
2023/07/14 14:32:41;;;;;;;;;17.75;16.25;;;;;38.41;36.69;100537.38;146604;595;46014;-72
2023/07/14 14:35:40;;;;;;;;;20.25;16.25;;;;;38.39;36.53;100533.94;146603;570;46017;-73
2023/07/14 14:38:43;;;;;;;;;16.50;16.00;;;;;38.29;35.99;100539.03;146605;593;47010;-73
2023/07/14 14:41:44;;;;;;;;;18.25;17.75;;;;;38.07;35.57;100537.81;146605;604;46013;-72
2023/07/14 14:44:36;;;;;;;;;19.50;17.75;;;;;37.83;36.41;100539.41;146605;601;47020;-73
2023/07/14 14:47:39;;;;;;;;;18.75;16.50;;;;;37.66;37.39;100535.06;146602;570;47012;-72
2023/07/14 14:50:36;;;;;;;;;19.25;19.25;;;;;37.52;36.89;100533.28;146602;623;46011;-72
2023/07/14 14:53:34;;;;;;;;;22.25;19.25;;;;;37.37;37.24;100535.09;146604;668;46012;-72